sensor_id;sensor_type;location;lat;lon;timestamp;P1;durP1;ratioP1;P2;durP2;ratioP2
70270;SDS011;57680;54.292;18.598;2023-04-01T00:00:19;23.85;;;5.75;;
70270;SDS011;57680;54.292;18.598;2023-04-01T00:02:45;24.08;;;6.43;;
70270;SDS011;57680;54.292;18.598;2023-04-01T00:05:11;25.53;;;5.43;;
70270;SDS011;57680;54.292;18.598;2023-04-01T00:07:37;36.50;;;5.75;;
70270;SDS011;57680;54.292;18.598;2023-04-01T00:10:08;23.55;;;6.68;;
70270;SDS011;57680;54.292;18.598;2023-04-01T00:12:36;16.77;;;5.13;;
70270;SDS011;57680;54.292;18.598;2023-04-01T00:15:03;20.27;;;6.88;;
70270;SDS011;57680;54.292;18.598;2023-04-01T00:17:30;17.13;;;5.60;;
70270;SDS011;57680;54.292;18.598;2023-04-01T00:19:55;15.60;;;5.63;;
70270;SDS011;57680;54.292;18.598;2023-04-01T00:22:21;10.90;;;3.75;;
70270;SDS011;57680;54.292;18.598;2023-04-01T00:24:47;19.03;;;6.63;;
70270;SDS011;57680;54.292;18.598;2023-04-01T00:27:12;24.47;;;7.27;;
70270;SDS011;57680;54.292;18.598;2023-04-01T00:29:41;20.83;;;5.83;;
70270;SDS011;57680;54.292;18.598;2023-04-01T00:32:07;28.27;;;7.15;;
70270;SDS011;57680;54.292;18.598;2023-04-01T00:34:32;30.10;;;7.03;;
70270;SDS011;57680;54.292;18.598;2023-04-01T00:36:57;27.20;;;8.00;;
70270;SDS011;57680;54.292;18.598;2023-04-01T00:39:23;17.03;;;5.73;;
70270;SDS011;57680;54.292;18.598;2023-04-01T00:41:48;20.23;;;4.37;;
70270;SDS011;57680;54.292;18.598;2023-04-01T00:44:19;15.60;;;3.77;;
70270;SDS011;57680;54.292;18.598;2023-04-01T00:46:46;20.90;;;4.15;;
70270;SDS011;57680;54.292;18.598;2023-04-01T00:49:12;23.83;;;5.00;;
70270;SDS011;57680;54.292;18.598;2023-04-01T00:51:38;14.55;;;3.15;;
70270;SDS011;57680;54.292;18.598;2023-04-01T00:54:04;17.88;;;4.10;;
70270;SDS011;57680;54.292;18.598;2023-04-01T00:56:34;16.98;;;4.03;;
70270;SDS011;57680;54.292;18.598;2023-04-01T00:59:06;33.25;;;5.38;;
70270;SDS011;57680;54.292;18.598;2023-04-01T01:01:36;16.80;;;4.73;;
70270;SDS011;57680;54.292;18.598;2023-04-01T01:04:02;15.10;;;4.53;;
70270;SDS011;57680;54.292;18.598;2023-04-01T01:31:11;24.02;;;7.90;;
70270;SDS011;57680;54.292;18.598;2023-04-01T01:36:13;31.20;;;8.27;;
70270;SDS011;57680;54.292;18.598;2023-04-01T01:38:41;42.33;;;9.82;;
70270;SDS011;57680;54.292;18.598;2023-04-01T01:41:07;32.33;;;8.80;;
70270;SDS011;57680;54.292;18.598;2023-04-01T01:43:38;30.13;;;9.10;;
70270;SDS011;57680;54.292;18.598;2023-04-01T01:46:08;25.88;;;7.85;;
70270;SDS011;57680;54.292;18.598;2023-04-01T01:48:36;30.30;;;9.45;;
70270;SDS011;57680;54.292;18.598;2023-04-01T01:51:03;29.10;;;9.93;;
70270;SDS011;57680;54.292;18.598;2023-04-01T01:53:30;30.08;;;10.40;;
70270;SDS011;57680;54.292;18.598;2023-04-01T01:55:56;29.57;;;9.07;;
70270;SDS011;57680;54.292;18.598;2023-04-01T01:58:25;29.23;;;10.00;;
70270;SDS011;57680;54.292;18.598;2023-04-01T02:00:55;17.95;;;7.40;;
70270;SDS011;57680;54.292;18.598;2023-04-01T02:03:28;25.38;;;8.57;;
70270;SDS011;57680;54.292;18.598;2023-04-01T02:05:57;26.05;;;8.65;;
70270;SDS011;57680;54.292;18.598;2023-04-01T02:08:30;20.75;;;7.35;;
70270;SDS011;57680;54.292;18.598;2023-04-01T02:11:22;25.67;;;9.30;;
70270;SDS011;57680;54.292;18.598;2023-04-01T02:16:27;26.50;;;8.45;;
70270;SDS011;57680;54.292;18.598;2023-04-01T02:18:57;22.73;;;7.70;;
70270;SDS011;57680;54.292;18.598;2023-04-01T02:21:24;27.52;;;9.13;;
70270;SDS011;57680;54.292;18.598;2023-04-01T02:23:53;28.23;;;8.93;;
70270;SDS011;57680;54.292;18.598;2023-04-01T02:26:21;22.80;;;8.60;;
70270;SDS011;57680;54.292;18.598;2023-04-01T02:28:48;22.52;;;8.80;;
70270;SDS011;57680;54.292;18.598;2023-04-01T02:31:16;24.27;;;8.98;;
70270;SDS011;57680;54.292;18.598;2023-04-01T02:33:41;27.67;;;9.40;;
70270;SDS011;57680;54.292;18.598;2023-04-01T02:36:10;23.70;;;8.05;;
70270;SDS011;57680;54.292;18.598;2023-04-01T02:38:37;19.73;;;7.80;;
70270;SDS011;57680;54.292;18.598;2023-04-01T02:41:04;16.58;;;5.90;;
70270;SDS011;57680;54.292;18.598;2023-04-01T02:43:30;17.85;;;7.72;;
70270;SDS011;57680;54.292;18.598;2023-04-01T02:45:55;22.47;;;7.53;;
70270;SDS011;57680;54.292;18.598;2023-04-01T02:48:21;17.00;;;6.60;;
70270;SDS011;57680;54.292;18.598;2023-04-01T02:50:46;14.77;;;6.00;;
70270;SDS011;57680;54.292;18.598;2023-04-01T02:53:12;18.33;;;7.53;;
70270;SDS011;57680;54.292;18.598;2023-04-01T02:55:37;17.53;;;6.57;;
70270;SDS011;57680;54.292;18.598;2023-04-01T02:58:03;17.63;;;7.43;;
70270;SDS011;57680;54.292;18.598;2023-04-01T03:00:30;20.40;;;8.00;;
70270;SDS011;57680;54.292;18.598;2023-04-01T03:02:55;17.27;;;6.13;;
70270;SDS011;57680;54.292;18.598;2023-04-01T03:05:21;17.37;;;7.20;;
70270;SDS011;57680;54.292;18.598;2023-04-01T03:07:46;21.20;;;7.93;;
70270;SDS011;57680;54.292;18.598;2023-04-01T03:10:12;19.57;;;7.53;;
70270;SDS011;57680;54.292;18.598;2023-04-01T03:12:37;19.25;;;7.90;;
70270;SDS011;57680;54.292;18.598;2023-04-01T03:15:03;22.77;;;8.97;;
70270;SDS011;57680;54.292;18.598;2023-04-01T03:17:29;25.23;;;9.18;;
70270;SDS011;57680;54.292;18.598;2023-04-01T03:19:54;19.87;;;7.63;;
70270;SDS011;57680;54.292;18.598;2023-04-01T03:22:19;15.83;;;6.63;;
70270;SDS011;57680;54.292;18.598;2023-04-01T03:24:45;13.17;;;5.23;;
70270;SDS011;57680;54.292;18.598;2023-04-01T03:27:10;15.43;;;5.70;;
70270;SDS011;57680;54.292;18.598;2023-04-01T03:29:36;17.37;;;6.87;;
70270;SDS011;57680;54.292;18.598;2023-04-01T03:32:01;20.27;;;5.90;;
70270;SDS011;57680;54.292;18.598;2023-04-01T03:34:26;21.50;;;6.90;;
70270;SDS011;57680;54.292;18.598;2023-04-01T03:36:52;13.97;;;5.93;;
70270;SDS011;57680;54.292;18.598;2023-04-01T03:39:17;14.40;;;5.73;;
70270;SDS011;57680;54.292;18.598;2023-04-01T03:41:43;15.63;;;6.57;;
70270;SDS011;57680;54.292;18.598;2023-04-01T03:44:08;16.10;;;6.53;;
70270;SDS011;57680;54.292;18.598;2023-04-01T03:46:34;18.17;;;7.67;;
70270;SDS011;57680;54.292;18.598;2023-04-01T03:48:59;15.53;;;6.67;;
70270;SDS011;57680;54.292;18.598;2023-04-01T03:51:24;20.90;;;7.10;;
70270;SDS011;57680;54.292;18.598;2023-04-01T03:53:50;18.23;;;7.20;;
70270;SDS011;57680;54.292;18.598;2023-04-01T03:56:15;14.00;;;5.80;;
70270;SDS011;57680;54.292;18.598;2023-04-01T03:58:40;17.23;;;7.37;;
70270;SDS011;57680;54.292;18.598;2023-04-01T04:01:16;13.47;;;6.00;;
70270;SDS011;57680;54.292;18.598;2023-04-01T04:03:43;9.73;;;4.32;;
70270;SDS011;57680;54.292;18.598;2023-04-01T04:06:12;15.27;;;6.50;;
70270;SDS011;57680;54.292;18.598;2023-04-01T04:08:38;15.23;;;6.20;;
70270;SDS011;57680;54.292;18.598;2023-04-01T04:11:04;14.17;;;5.27;;
70270;SDS011;57680;54.292;18.598;2023-04-01T04:13:29;12.13;;;4.80;;
70270;SDS011;57680;54.292;18.598;2023-04-01T04:15:55;16.97;;;6.47;;
70270;SDS011;57680;54.292;18.598;2023-04-01T04:18:20;15.27;;;6.03;;
70270;SDS011;57680;54.292;18.598;2023-04-01T04:20:46;21.97;;;8.60;;
70270;SDS011;57680;54.292;18.598;2023-04-01T04:23:12;19.35;;;6.53;;
70270;SDS011;57680;54.292;18.598;2023-04-01T04:25:37;22.77;;;7.47;;
70270;SDS011;57680;54.292;18.598;2023-04-01T04:28:03;11.70;;;4.87;;
70270;SDS011;57680;54.292;18.598;2023-04-01T04:30:28;13.87;;;5.27;;
70270;SDS011;57680;54.292;18.598;2023-04-01T04:32:54;22.85;;;8.65;;
70270;SDS011;57680;54.292;18.598;2023-04-01T04:35:19;20.57;;;7.57;;
70270;SDS011;57680;54.292;18.598;2023-04-01T04:37:44;25.87;;;8.87;;
70270;SDS011;57680;54.292;18.598;2023-04-01T04:40:10;24.73;;;8.70;;
70270;SDS011;57680;54.292;18.598;2023-04-01T04:42:36;21.92;;;8.15;;
70270;SDS011;57680;54.292;18.598;2023-04-01T04:45:01;18.43;;;7.03;;
70270;SDS011;57680;54.292;18.598;2023-04-01T04:47:26;17.40;;;7.50;;
70270;SDS011;57680;54.292;18.598;2023-04-01T04:49:52;15.13;;;5.73;;
70270;SDS011;57680;54.292;18.598;2023-04-01T04:52:17;20.45;;;8.10;;
70270;SDS011;57680;54.292;18.598;2023-04-01T04:54:43;24.23;;;8.53;;
70270;SDS011;57680;54.292;18.598;2023-04-01T04:57:08;21.80;;;7.87;;
70270;SDS011;57680;54.292;18.598;2023-04-01T04:59:33;17.80;;;6.87;;
70270;SDS011;57680;54.292;18.598;2023-04-01T05:01:58;17.27;;;6.40;;
70270;SDS011;57680;54.292;18.598;2023-04-01T05:04:24;23.80;;;6.60;;
70270;SDS011;57680;54.292;18.598;2023-04-01T05:06:49;17.38;;;6.38;;
70270;SDS011;57680;54.292;18.598;2023-04-01T05:09:15;20.43;;;6.53;;
70270;SDS011;57680;54.292;18.598;2023-04-01T05:11:40;16.67;;;6.93;;
70270;SDS011;57680;54.292;18.598;2023-04-01T05:14:06;16.90;;;5.90;;
70270;SDS011;57680;54.292;18.598;2023-04-01T05:16:36;20.15;;;6.05;;
70270;SDS011;57680;54.292;18.598;2023-04-01T05:19:01;22.47;;;6.10;;
70270;SDS011;57680;54.292;18.598;2023-04-01T05:21:27;23.30;;;6.40;;
70270;SDS011;57680;54.292;18.598;2023-04-01T05:23:52;18.40;;;6.05;;
70270;SDS011;57680;54.292;18.598;2023-04-01T05:26:18;18.50;;;5.60;;
70270;SDS011;57680;54.292;18.598;2023-04-01T05:28:43;18.80;;;5.37;;
70270;SDS011;57680;54.292;18.598;2023-04-01T05:31:09;20.50;;;5.47;;
70270;SDS011;57680;54.292;18.598;2023-04-01T05:33:34;24.48;;;5.55;;
70270;SDS011;57680;54.292;18.598;2023-04-01T05:36:10;36.03;;;5.07;;
70270;SDS011;57680;54.292;18.598;2023-04-01T05:38:40;18.98;;;4.47;;
70270;SDS011;57680;54.292;18.598;2023-04-01T05:41:06;10.70;;;2.73;;
70270;SDS011;57680;54.292;18.598;2023-04-01T05:43:31;18.55;;;4.55;;
70270;SDS011;57680;54.292;18.598;2023-04-01T05:45:57;18.33;;;4.23;;
70270;SDS011;57680;54.292;18.598;2023-04-01T05:48:22;47.13;;;5.28;;
70270;SDS011;57680;54.292;18.598;2023-04-01T05:50:48;59.77;;;5.67;;
70270;SDS011;57680;54.292;18.598;2023-04-01T05:53:13;18.70;;;3.40;;
70270;SDS011;57680;54.292;18.598;2023-04-01T05:55:40;30.10;;;4.13;;
70270;SDS011;57680;54.292;18.598;2023-04-01T05:58:05;29.38;;;5.55;;
70270;SDS011;57680;54.292;18.598;2023-04-01T06:00:30;24.43;;;4.20;;
70270;SDS011;57680;54.292;18.598;2023-04-01T06:02:58;43.60;;;5.30;;
70270;SDS011;57680;54.292;18.598;2023-04-01T06:05:26;37.17;;;5.10;;
70270;SDS011;57680;54.292;18.598;2023-04-01T06:08:16;18.67;;;2.85;;
70270;SDS011;57680;54.292;18.598;2023-04-01T06:10:48;50.63;;;4.65;;
70270;SDS011;57680;54.292;18.598;2023-04-01T06:16:15;25.13;;;4.00;;
70270;SDS011;57680;54.292;18.598;2023-04-01T06:18:51;14.07;;;3.50;;
70270;SDS011;57680;54.292;18.598;2023-04-01T06:30:11;22.48;;;3.42;;
70270;SDS011;57680;54.292;18.598;2023-04-01T06:43:23;25.55;;;3.83;;
70270;SDS011;57680;54.292;18.598;2023-04-01T06:46:18;12.23;;;3.33;;
70270;SDS011;57680;54.292;18.598;2023-04-01T06:51:19;6.93;;;2.28;;
70270;SDS011;57680;54.292;18.598;2023-04-01T06:56:54;14.93;;;3.95;;
70270;SDS011;57680;54.292;18.598;2023-04-01T06:59:25;8.33;;;2.80;;
70270;SDS011;57680;54.292;18.598;2023-04-01T07:01:55;8.20;;;2.58;;
70270;SDS011;57680;54.292;18.598;2023-04-01T07:04:29;11.15;;;3.08;;
70270;SDS011;57680;54.292;18.598;2023-04-01T07:09:57;7.70;;;2.90;;
70270;SDS011;57680;54.292;18.598;2023-04-01T07:14:57;6.65;;;2.03;;
70270;SDS011;57680;54.292;18.598;2023-04-01T07:17:25;6.47;;;2.20;;
70270;SDS011;57680;54.292;18.598;2023-04-01T07:22:58;13.82;;;3.65;;
70270;SDS011;57680;54.292;18.598;2023-04-01T07:25:27;16.60;;;4.33;;
70270;SDS011;57680;54.292;18.598;2023-04-01T07:27:56;6.90;;;1.98;;
70270;SDS011;57680;54.292;18.598;2023-04-01T07:30:30;9.23;;;2.17;;
70270;SDS011;57680;54.292;18.598;2023-04-01T07:33:22;5.53;;;1.73;;
70270;SDS011;57680;54.292;18.598;2023-04-01T07:35:59;7.72;;;2.63;;
70270;SDS011;57680;54.292;18.598;2023-04-01T07:38:53;5.70;;;2.03;;
70270;SDS011;57680;54.292;18.598;2023-04-01T07:41:45;4.55;;;1.65;;
70270;SDS011;57680;54.292;18.598;2023-04-01T07:44:21;6.00;;;1.83;;
70270;SDS011;57680;54.292;18.598;2023-04-01T07:50:39;4.70;;;1.70;;
70270;SDS011;57680;54.292;18.598;2023-04-01T07:53:02;4.43;;;1.83;;
70270;SDS011;57680;54.292;18.598;2023-04-01T08:00:57;3.65;;;1.60;;
70270;SDS011;57680;54.292;18.598;2023-04-01T08:03:33;4.00;;;1.50;;
70270;SDS011;57680;54.292;18.598;2023-04-01T08:06:09;3.63;;;1.53;;
70270;SDS011;57680;54.292;18.598;2023-04-01T08:09:41;5.75;;;2.53;;
70270;SDS011;57680;54.292;18.598;2023-04-01T08:11:59;10.35;;;3.55;;
70270;SDS011;57680;54.292;18.598;2023-04-01T08:15:03;7.78;;;3.22;;
70270;SDS011;57680;54.292;18.598;2023-04-01T08:17:57;6.25;;;2.20;;
70270;SDS011;57680;54.292;18.598;2023-04-01T08:25:35;6.30;;;2.10;;
70270;SDS011;57680;54.292;18.598;2023-04-01T08:28:09;5.72;;;1.85;;
70270;SDS011;57680;54.292;18.598;2023-04-01T08:30:52;4.90;;;1.58;;
70270;SDS011;57680;54.292;18.598;2023-04-01T08:33:24;3.95;;;1.40;;
70270;SDS011;57680;54.292;18.598;2023-04-01T08:38:34;9.93;;;3.20;;
70270;SDS011;57680;54.292;18.598;2023-04-01T08:41:28;7.88;;;2.75;;
70270;SDS011;57680;54.292;18.598;2023-04-01T08:49:06;10.02;;;4.57;;
70270;SDS011;57680;54.292;18.598;2023-04-01T09:27:08;9.48;;;4.03;;
70270;SDS011;57680;54.292;18.598;2023-04-01T09:33:01;6.65;;;2.28;;
70270;SDS011;57680;54.292;18.598;2023-04-01T09:38:20;10.45;;;3.53;;
70270;SDS011;57680;54.292;18.598;2023-04-01T09:41:02;7.15;;;3.30;;
70270;SDS011;57680;54.292;18.598;2023-04-01T09:51:53;4.43;;;1.55;;
70270;SDS011;57680;54.292;18.598;2023-04-01T10:09:04;7.63;;;2.38;;
70270;SDS011;57680;54.292;18.598;2023-04-01T10:11:59;5.93;;;1.70;;
70270;SDS011;57680;54.292;18.598;2023-04-01T10:20:36;6.38;;;2.05;;
70270;SDS011;57680;54.292;18.598;2023-04-01T10:33:58;6.40;;;2.03;;
70270;SDS011;57680;54.292;18.598;2023-04-01T10:45:06;6.43;;;2.42;;
70270;SDS011;57680;54.292;18.598;2023-04-01T10:48:14;6.20;;;1.90;;
70270;SDS011;57680;54.292;18.598;2023-04-01T10:59:20;5.88;;;2.00;;
70270;SDS011;57680;54.292;18.598;2023-04-01T11:22:19;5.67;;;2.10;;
70270;SDS011;57680;54.292;18.598;2023-04-01T11:27:51;4.13;;;1.63;;
70270;SDS011;57680;54.292;18.598;2023-04-01T11:34:14;4.30;;;1.50;;
70270;SDS011;57680;54.292;18.598;2023-04-01T11:42:11;5.40;;;1.90;;
70270;SDS011;57680;54.292;18.598;2023-04-01T11:45:33;4.90;;;1.38;;
70270;SDS011;57680;54.292;18.598;2023-04-01T11:47:52;6.68;;;1.83;;
70270;SDS011;57680;54.292;18.598;2023-04-01T11:55:49;7.10;;;1.95;;
70270;SDS011;57680;54.292;18.598;2023-04-01T11:58:58;6.50;;;1.80;;
70270;SDS011;57680;54.292;18.598;2023-04-01T12:06:50;8.73;;;2.03;;
70270;SDS011;57680;54.292;18.598;2023-04-01T12:09:48;6.80;;;1.85;;
70270;SDS011;57680;54.292;18.598;2023-04-01T12:24:05;6.40;;;1.83;;
70270;SDS011;57680;54.292;18.598;2023-04-01T12:29:09;4.97;;;1.77;;
70270;SDS011;57680;54.292;18.598;2023-04-01T12:31:59;3.95;;;1.67;;
70270;SDS011;57680;54.292;18.598;2023-04-01T12:37:54;4.25;;;1.70;;
70270;SDS011;57680;54.292;18.598;2023-04-01T12:40:46;4.22;;;1.80;;
70270;SDS011;57680;54.292;18.598;2023-04-01T12:48:50;8.27;;;2.57;;
70270;SDS011;57680;54.292;18.598;2023-04-01T13:02:41;3.33;;;1.07;;
70270;SDS011;57680;54.292;18.598;2023-04-01T13:05:49;6.68;;;1.52;;
70270;SDS011;57680;54.292;18.598;2023-04-01T13:11:08;3.93;;;1.47;;
70270;SDS011;57680;54.292;18.598;2023-04-01T13:28:06;6.00;;;2.10;;
70270;SDS011;57680;54.292;18.598;2023-04-01T13:30:55;7.40;;;2.42;;
70270;SDS011;57680;54.292;18.598;2023-04-01T13:36:16;7.22;;;2.28;;
70270;SDS011;57680;54.292;18.598;2023-04-01T13:42:05;5.32;;;1.90;;
70270;SDS011;57680;54.292;18.598;2023-04-01T13:44:47;12.07;;;2.92;;
70270;SDS011;57680;54.292;18.598;2023-04-01T13:50:34;12.77;;;5.00;;
70270;SDS011;57680;54.292;18.598;2023-04-01T14:00:03;9.50;;;2.90;;
70270;SDS011;57680;54.292;18.598;2023-04-01T14:02:44;10.70;;;3.13;;
70270;SDS011;57680;54.292;18.598;2023-04-01T14:11:30;20.60;;;6.78;;
70270;SDS011;57680;54.292;18.598;2023-04-01T14:17:13;7.40;;;2.87;;
70270;SDS011;57680;54.292;18.598;2023-04-01T14:19:50;6.57;;;2.45;;
70270;SDS011;57680;54.292;18.598;2023-04-01T14:25:36;6.88;;;2.33;;
70270;SDS011;57680;54.292;18.598;2023-04-01T14:37:00;6.93;;;2.53;;
70270;SDS011;57680;54.292;18.598;2023-04-01T14:45:29;8.93;;;2.80;;
70270;SDS011;57680;54.292;18.598;2023-04-01T14:51:50;8.07;;;3.13;;
70270;SDS011;57680;54.292;18.598;2023-04-01T14:56:40;10.55;;;3.63;;
70270;SDS011;57680;54.292;18.598;2023-04-01T14:59:15;10.07;;;3.30;;
70270;SDS011;57680;54.292;18.598;2023-04-01T15:02:00;11.40;;;3.65;;
70270;SDS011;57680;54.292;18.598;2023-04-01T15:04:37;9.68;;;3.13;;
70270;SDS011;57680;54.292;18.598;2023-04-01T15:15:34;14.98;;;4.70;;
70270;SDS011;57680;54.292;18.598;2023-04-01T15:18:46;14.15;;;5.10;;
70270;SDS011;57680;54.292;18.598;2023-04-01T15:29:56;12.95;;;4.32;;
70270;SDS011;57680;54.292;18.598;2023-04-01T15:32:27;12.88;;;4.20;;
70270;SDS011;57680;54.292;18.598;2023-04-01T15:57:18;13.00;;;4.72;;
70270;SDS011;57680;54.292;18.598;2023-04-01T15:59:53;15.88;;;5.53;;
70270;SDS011;57680;54.292;18.598;2023-04-01T16:09:14;9.77;;;3.93;;
70270;SDS011;57680;54.292;18.598;2023-04-01T16:23:39;10.93;;;4.97;;
70270;SDS011;57680;54.292;18.598;2023-04-01T16:29:19;9.85;;;4.18;;
70270;SDS011;57680;54.292;18.598;2023-04-01T16:37:50;17.50;;;5.90;;
70270;SDS011;57680;54.292;18.598;2023-04-01T16:41:23;13.13;;;4.78;;
70270;SDS011;57680;54.292;18.598;2023-04-01T16:43:40;14.40;;;5.13;;
70270;SDS011;57680;54.292;18.598;2023-04-01T16:46:14;10.88;;;4.40;;
70270;SDS011;57680;54.292;18.598;2023-04-01T16:48:58;11.25;;;3.97;;
70270;SDS011;57680;54.292;18.598;2023-04-01T16:51:32;11.43;;;4.40;;
70270;SDS011;57680;54.292;18.598;2023-04-01T17:02:10;18.73;;;5.70;;
70270;SDS011;57680;54.292;18.598;2023-04-01T17:12:28;16.15;;;6.50;;
70270;SDS011;57680;54.292;18.598;2023-04-01T17:28:46;8.38;;;4.03;;
70270;SDS011;57680;54.292;18.598;2023-04-01T17:37:10;15.27;;;6.15;;
70270;SDS011;57680;54.292;18.598;2023-04-01T17:45:20;15.07;;;5.23;;
70270;SDS011;57680;54.292;18.598;2023-04-01T17:50:44;12.35;;;4.35;;
70270;SDS011;57680;54.292;18.598;2023-04-01T17:53:35;11.10;;;4.22;;
70270;SDS011;57680;54.292;18.598;2023-04-01T17:58:44;15.17;;;5.00;;
70270;SDS011;57680;54.292;18.598;2023-04-01T18:04:26;13.05;;;4.32;;
70270;SDS011;57680;54.292;18.598;2023-04-01T18:10:00;12.25;;;4.75;;
70270;SDS011;57680;54.292;18.598;2023-04-01T18:21:16;11.85;;;3.80;;
70270;SDS011;57680;54.292;18.598;2023-04-01T18:23:51;15.32;;;4.57;;
70270;SDS011;57680;54.292;18.598;2023-04-01T18:26:22;15.00;;;5.30;;
70270;SDS011;57680;54.292;18.598;2023-04-01T18:28:54;13.43;;;4.50;;
70270;SDS011;57680;54.292;18.598;2023-04-01T18:31:32;14.15;;;4.75;;
70270;SDS011;57680;54.292;18.598;2023-04-01T18:34:06;12.85;;;4.43;;
70270;SDS011;57680;54.292;18.598;2023-04-01T18:36:51;15.40;;;4.18;;
70270;SDS011;57680;54.292;18.598;2023-04-01T18:39:32;13.23;;;4.97;;
70270;SDS011;57680;54.292;18.598;2023-04-01T18:42:03;16.35;;;4.70;;
70270;SDS011;57680;54.292;18.598;2023-04-01T18:44:49;13.32;;;4.47;;
70270;SDS011;57680;54.292;18.598;2023-04-01T18:56:05;13.40;;;4.65;;
70270;SDS011;57680;54.292;18.598;2023-04-01T19:04:31;14.88;;;4.45;;
70270;SDS011;57680;54.292;18.598;2023-04-01T19:07:21;12.00;;;4.50;;
70270;SDS011;57680;54.292;18.598;2023-04-01T19:09:48;14.20;;;3.67;;
70270;SDS011;57680;54.292;18.598;2023-04-01T19:17:47;12.68;;;4.50;;
70270;SDS011;57680;54.292;18.598;2023-04-01T19:20:32;10.50;;;4.20;;
70270;SDS011;57680;54.292;18.598;2023-04-01T19:25:43;14.10;;;4.97;;
70270;SDS011;57680;54.292;18.598;2023-04-01T19:31:02;11.70;;;4.20;;
70270;SDS011;57680;54.292;18.598;2023-04-01T19:46:32;8.20;;;3.58;;
70270;SDS011;57680;54.292;18.598;2023-04-01T19:58:39;14.45;;;4.10;;
70270;SDS011;57680;54.292;18.598;2023-04-01T20:00:50;8.73;;;3.00;;
70270;SDS011;57680;54.292;18.598;2023-04-01T20:09:11;8.13;;;3.38;;
70270;SDS011;57680;54.292;18.598;2023-04-01T20:14:40;12.20;;;4.70;;
70270;SDS011;57680;54.292;18.598;2023-04-01T20:20:21;7.40;;;3.15;;
70270;SDS011;57680;54.292;18.598;2023-04-01T20:23:02;10.13;;;3.57;;
70270;SDS011;57680;54.292;18.598;2023-04-01T20:28:02;9.02;;;2.63;;
70270;SDS011;57680;54.292;18.598;2023-04-01T20:36:24;11.93;;;3.90;;
70270;SDS011;57680;54.292;18.598;2023-04-01T20:39:14;9.63;;;3.33;;
70270;SDS011;57680;54.292;18.598;2023-04-01T20:42:00;7.57;;;3.00;;
70270;SDS011;57680;54.292;18.598;2023-04-01T20:45:08;7.43;;;2.80;;
70270;SDS011;57680;54.292;18.598;2023-04-01T20:47:51;10.25;;;3.80;;
70270;SDS011;57680;54.292;18.598;2023-04-01T20:53:29;5.22;;;2.33;;
70270;SDS011;57680;54.292;18.598;2023-04-01T20:59:36;8.13;;;3.27;;
70270;SDS011;57680;54.292;18.598;2023-04-01T21:04:36;7.00;;;2.75;;
70270;SDS011;57680;54.292;18.598;2023-04-01T21:07:28;10.07;;;3.60;;
70270;SDS011;57680;54.292;18.598;2023-04-01T21:15:51;10.95;;;4.50;;
70270;SDS011;57680;54.292;18.598;2023-04-01T21:31:45;7.30;;;2.47;;
70270;SDS011;57680;54.292;18.598;2023-04-01T21:59:48;10.37;;;3.70;;
70270;SDS011;57680;54.292;18.598;2023-04-01T22:05:44;8.18;;;3.05;;
70270;SDS011;57680;54.292;18.598;2023-04-01T22:11:15;7.60;;;2.30;;
70270;SDS011;57680;54.292;18.598;2023-04-01T22:14:02;5.97;;;2.00;;
70270;SDS011;57680;54.292;18.598;2023-04-01T22:35:29;6.88;;;2.72;;
70270;SDS011;57680;54.292;18.598;2023-04-01T22:40:53;9.82;;;2.40;;
70270;SDS011;57680;54.292;18.598;2023-04-01T22:43:42;9.55;;;2.85;;
70270;SDS011;57680;54.292;18.598;2023-04-01T22:46:23;9.07;;;2.10;;
70270;SDS011;57680;54.292;18.598;2023-04-01T22:51:57;6.20;;;2.20;;
70270;SDS011;57680;54.292;18.598;2023-04-01T22:54:50;8.52;;;3.20;;
70270;SDS011;57680;54.292;18.598;2023-04-01T23:02:35;6.35;;;2.10;;
70270;SDS011;57680;54.292;18.598;2023-04-01T23:05:05;7.63;;;2.47;;
70270;SDS011;57680;54.292;18.598;2023-04-01T23:13:18;10.85;;;3.53;;
70270;SDS011;57680;54.292;18.598;2023-04-01T23:15:46;8.02;;;2.83;;
70270;SDS011;57680;54.292;18.598;2023-04-01T23:18:22;9.10;;;3.47;;
70270;SDS011;57680;54.292;18.598;2023-04-01T23:26:43;8.88;;;2.40;;
70270;SDS011;57680;54.292;18.598;2023-04-01T23:29:17;7.63;;;2.90;;
70270;SDS011;57680;54.292;18.598;2023-04-01T23:31:47;11.48;;;3.20;;
70270;SDS011;57680;54.292;18.598;2023-04-01T23:34:22;5.53;;;1.93;;
70270;SDS011;57680;54.292;18.598;2023-04-01T23:37:02;6.57;;;2.28;;
70270;SDS011;57680;54.292;18.598;2023-04-01T23:39:41;6.63;;;1.67;;
70270;SDS011;57680;54.292;18.598;2023-04-01T23:42:27;6.00;;;1.70;;
70270;SDS011;57680;54.292;18.598;2023-04-01T23:44:58;4.28;;;1.63;;
70270;SDS011;57680;54.292;18.598;2023-04-01T23:47:46;3.97;;;1.10;;
70270;SDS011;57680;54.292;18.598;2023-04-01T23:50:13;4.03;;;1.30;;
70270;SDS011;57680;54.292;18.598;2023-04-01T23:52:43;5.43;;;1.65;;
70270;SDS011;57680;54.292;18.598;2023-04-01T23:55:15;5.97;;;2.03;;
70270;SDS011;57680;54.292;18.598;2023-04-01T23:57:59;6.07;;;1.65;;
